Time;durP1;ratioP1;P1;durP2;ratioP2;P2;SDS_P1;SDS_P2;PMS_P1;PMS_P2;Temp;Humidity;BMP_temperature;BMP_pressure;BME280_temperature;BME280_humidity;BME280_pressure;Samples;Min_cycle;Max_cycle;Signal;HPM_P1;HPM_P2
2023/07/13 00:01:12;;;;;;;;;;;30.60;58.30;;;;;;5145807;27;42803;-79
2023/07/13 00:03:40;;;;;;;;;;;30.60;58.20;;;;;;5131348;27;43033;-80
2023/07/13 00:06:06;;;;;;;;;;;30.60;57.80;;;;;;5127231;27;43625;-80
2023/07/13 00:08:32;;;;;;;;;;;30.60;58.30;;;;;;5135201;27;42896;-80
2023/07/13 00:10:58;;;;;;;;;;;30.60;58.30;;;;;;5132143;27;43551;-80
2023/07/13 00:13:24;;;;;;;;;;;30.60;58.30;;;;;;5134661;27;42840;-81
2023/07/13 00:15:49;;;;;;;;;;;30.60;58.30;;;;;;5140917;27;42931;-79
2023/07/13 00:18:15;;;;;;;;;;;30.60;58.30;;;;;;5135779;27;43025;-81
2023/07/13 00:20:41;;;;;;;;;;;30.60;58.30;;;;;;5137136;27;43480;-80
2023/07/13 00:23:07;;;;;;;;;;;30.60;57.80;;;;;;5145688;27;42973;-83
2023/07/13 00:25:32;;;;;;;;;;;30.60;58.30;;;;;;5133678;27;42994;-80
2023/07/13 00:27:58;;;;;;;;;;;30.60;58.20;;;;;;5146440;27;42963;-82
2023/07/13 00:30:23;;;;;;;;;;;30.60;58.20;;;;;;5139096;27;42957;-81
2023/07/13 00:32:49;;;;;;;;;;;30.60;58.10;;;;;;5139406;27;42944;-81
2023/07/13 00:35:15;;;;;;;;;;;30.60;58.20;;;;;;5136669;27;43679;-80
2023/07/13 00:37:41;;;;;;;;;;;30.60;58.10;;;;;;5140987;27;42931;-80
2023/07/13 00:40:07;;;;;;;;;;;30.60;57.70;;;;;;5148407;27;43065;-83
2023/07/13 00:42:32;;;;;;;;;;;30.60;57.80;;;;;;5147802;27;42872;-80
2023/07/13 00:45:02;;;;;;;;;;;30.60;58.20;;;;;;5128577;27;43036;-81
2023/07/13 00:47:28;;;;;;;;;;;30.60;58.10;;;;;;5133383;27;43408;-79
2023/07/13 00:49:53;;;;;;;;;;;30.60;58.10;;;;;;5145172;27;42976;-80
2023/07/13 00:52:19;;;;;;;;;;;30.60;58.10;;;;;;5129643;27;42786;-80
2023/07/13 00:54:46;;;;;;;;;;;30.60;57.60;;;;;;5140549;27;43555;-81
2023/07/13 00:57:13;;;;;;;;;;;30.60;58.00;;;;;;5146034;27;42922;-79
2023/07/13 00:59:41;;;;;;;;;;;30.60;57.60;;;;;;5146209;27;42966;-79
2023/07/13 01:02:07;;;;;;;;;;;30.60;58.00;;;;;;5146616;27;43033;-79
2023/07/13 01:04:33;;;;;;;;;;;30.60;58.10;;;;;;5145566;27;42929;-80
2023/07/13 01:06:58;;;;;;;;;;;30.50;57.60;;;;;;5145785;27;43168;-80
2023/07/13 01:09:26;;;;;;;;;;;30.60;58.00;;;;;;5130887;27;43751;-79
2023/07/13 01:11:51;;;;;;;;;;;30.60;58.00;;;;;;5141765;27;42920;-80
2023/07/13 01:14:17;;;;;;;;;;;30.60;58.00;;;;;;5137497;27;43599;-80
2023/07/13 01:16:44;;;;;;;;;;;30.60;58.10;;;;;;5136062;27;42984;-81
2023/07/13 01:19:16;;;;;;;;;;;30.60;58.00;;;;;;5145413;27;44399;-79
2023/07/13 01:21:42;;;;;;;;;;;30.60;58.00;;;;;;5145893;27;42817;-80
2023/07/13 01:24:08;;;;;;;;;;;30.60;58.00;;;;;;5131213;27;43344;-81
2023/07/13 01:26:34;;;;;;;;;;;30.60;58.00;;;;;;5145849;27;42927;-81
2023/07/13 01:29:00;;;;;;;;;;;30.60;58.00;;;;;;5146161;27;42985;-78
2023/07/13 01:31:25;;;;;;;;;;;30.60;58.00;;;;;;5146233;27;42899;-80
2023/07/13 01:33:51;;;;;;;;;;;30.60;58.00;;;;;;5144731;27;43406;-80
2023/07/13 01:36:16;;;;;;;;;;;30.60;58.00;;;;;;5126391;27;42959;-82
2023/07/13 01:38:42;;;;;;;;;;;30.60;57.50;;;;;;5125962;27;44358;-79
2023/07/13 01:41:08;;;;;;;;;;;30.60;58.00;;;;;;5132606;27;42991;-80
2023/07/13 01:43:33;;;;;;;;;;;30.60;58.00;;;;;;5144531;27;42991;-80
2023/07/13 01:45:59;;;;;;;;;;;30.60;57.50;;;;;;5145774;27;42991;-79
2023/07/13 01:48:24;;;;;;;;;;;30.50;57.40;;;;;;5132609;27;43726;-80
2023/07/13 01:50:50;;;;;;;;;;;30.60;57.50;;;;;;5132182;27;42904;-79
2023/07/13 01:53:15;;;;;;;;;;;30.50;57.40;;;;;;5126487;27;44727;-81
2023/07/13 01:55:41;;;;;;;;;;;30.60;57.90;;;;;;5131999;27;42910;-80
2023/07/13 01:58:06;;;;;;;;;;;30.60;58.00;;;;;;5125408;27;42934;-81
2023/07/13 02:00:32;;;;;;;;;;;30.60;57.40;;;;;;5126380;27;42909;-82
2023/07/13 02:02:58;;;;;;;;;;;30.60;57.90;;;;;;5133436;27;43652;-81
2023/07/13 02:05:24;;;;;;;;;;;30.60;57.80;;;;;;5127710;27;43149;-80
2023/07/13 02:07:49;;;;;;;;;;;30.60;57.90;;;;;;5139581;27;42914;-80
2023/07/13 02:10:15;;;;;;;;;;;30.60;57.90;;;;;;5133288;27;42951;-80
2023/07/13 02:12:41;;;;;;;;;;;30.60;57.90;;;;;;5145270;27;43721;-81
2023/07/13 02:15:06;;;;;;;;;;;30.60;57.90;;;;;;5126739;27;43150;-81
2023/07/13 02:17:32;;;;;;;;;;;30.70;57.90;;;;;;5143142;27;43012;-81
2023/07/13 02:19:58;;;;;;;;;;;30.50;57.30;;;;;;5144957;27;43089;-81
2023/07/13 02:22:23;;;;;;;;;;;30.60;57.40;;;;;;5119006;27;44644;-80
2023/07/13 02:24:49;;;;;;;;;;;30.60;57.40;;;;;;5145384;27;42989;-81
2023/07/13 02:27:14;;;;;;;;;;;30.60;57.40;;;;;;5148032;27;43548;-80
2023/07/13 02:29:40;;;;;;;;;;;30.60;57.90;;;;;;5148696;27;43014;-80
2023/07/13 02:32:06;;;;;;;;;;;30.50;57.30;;;;;;5146266;27;42927;-81
2023/07/13 02:34:31;;;;;;;;;;;30.60;57.40;;;;;;5148537;27;43328;-78
2023/07/13 02:36:57;;;;;;;;;;;30.50;57.30;;;;;;5137074;27;42951;-82
2023/07/13 02:39:23;;;;;;;;;;;30.60;57.80;;;;;;5148420;27;42974;-80
2023/07/13 02:41:48;;;;;;;;;;;30.60;57.40;;;;;;5146231;27;43057;-81
2023/07/13 02:44:14;;;;;;;;;;;30.60;57.80;;;;;;5147254;27;43534;-81
2023/07/13 02:46:40;;;;;;;;;;;30.60;57.80;;;;;;5147792;27;43561;-80
2023/07/13 02:49:05;;;;;;;;;;;30.50;57.20;;;;;;5148418;27;42967;-80
2023/07/13 02:51:33;;;;;;;;;;;30.60;57.80;;;;;;5145966;27;42964;-81
2023/07/13 02:53:58;;;;;;;;;;;30.60;57.80;;;;;;5147350;27;42869;-80
2023/07/13 02:56:25;;;;;;;;;;;30.60;57.80;;;;;;5146342;27;43395;-82
2023/07/13 02:58:51;;;;;;;;;;;30.60;57.70;;;;;;5149610;27;42982;-81
2023/07/13 03:01:18;;;;;;;;;;;30.60;57.30;;;;;;5149881;27;43443;-79
2023/07/13 03:03:45;;;;;;;;;;;30.50;57.70;;;;;;5148005;27;43033;-80
2023/07/13 03:06:11;;;;;;;;;;;30.60;57.70;;;;;;5145617;27;43067;-81
2023/07/13 03:08:37;;;;;;;;;;;30.50;57.70;;;;;;5148124;27;43135;-80
2023/07/13 03:11:10;;;;;;;;;;;30.50;57.20;;;;;;5146919;27;43494;-81
2023/07/13 03:13:36;;;;;;;;;;;30.60;57.70;;;;;;5145996;27;43217;-80
2023/07/13 03:16:02;;;;;;;;;;;30.50;57.60;;;;;;5145763;27;42892;-82
2023/07/13 03:18:27;;;;;;;;;;;26.10;54.30;;;;;;5132994;27;43617;-80
2023/07/13 03:20:53;;;;;;;;;;;30.50;57.20;;;;;;5134463;27;43028;-80
2023/07/13 03:23:19;;;;;;;;;;;30.60;57.70;;;;;;5149699;27;43374;-82
2023/07/13 03:25:45;;;;;;;;;;;30.60;57.70;;;;;;5142985;27;42900;-80
2023/07/13 03:28:11;;;;;;;;;;;30.50;57.20;;;;;;5141559;27;43094;-81
2023/07/13 03:30:36;;;;;;;;;;;30.50;57.60;;;;;;5127979;27;43634;-80
2023/07/13 03:33:02;;;;;;;;;;;30.60;57.70;;;;;;5143303;27;42957;-80
2023/07/13 03:35:27;;;;;;;;;;;30.60;57.70;;;;;;5128846;27;43016;-80
2023/07/13 03:37:53;;;;;;;;;;;30.50;57.60;;;;;;5128502;27;43059;-81
2023/07/13 03:40:19;;;;;;;;;;;30.50;57.10;;;;;;5127555;27;43834;-81
2023/07/13 03:42:44;;;;;;;;;;;30.50;57.60;;;;;;5140621;27;43160;-81
2023/07/13 03:45:09;;;;;;;;;;;30.50;57.60;;;;;;5147906;27;42916;-79
2023/07/13 03:47:35;;;;;;;;;;;30.50;57.60;;;;;;5148111;27;43103;-80
2023/07/13 03:50:00;;;;;;;;;;;30.50;57.60;;;;;;5128102;27;43017;-80
2023/07/13 03:52:26;;;;;;;;;;;30.60;57.70;;;;;;5141030;27;43004;-82
2023/07/13 03:54:51;;;;;;;;;;;30.50;57.60;;;;;;5133932;27;43469;-80
2023/07/13 03:57:18;;;;;;;;;;;30.50;57.10;;;;;;5135215;27;43076;-80
2023/07/13 03:59:43;;;;;;;;;;;30.50;57.50;;;;;;5133054;27;43832;-81
2023/07/13 04:02:09;;;;;;;;;;;30.50;57.60;;;;;;5135325;27;43230;-80
2023/07/13 04:04:35;;;;;;;;;;;30.50;57.50;;;;;;5147194;27;43553;-80
2023/07/13 04:07:00;;;;;;;;;;;30.50;58.10;;;;;;5147981;27;43189;-81
2023/07/13 04:09:26;;;;;;;;;;;30.50;57.50;;;;;;5127848;27;43490;-81
2023/07/13 04:11:51;;;;;;;;;;;30.50;57.50;;;;;;5139741;27;42999;-80
2023/07/13 04:14:17;;;;;;;;;;;30.50;57.50;;;;;;5133384;27;43629;-80
2023/07/13 04:16:43;;;;;;;;;;;30.50;57.50;;;;;;5146655;27;42918;-81
2023/07/13 04:19:10;;;;;;;;;;;30.50;57.50;;;;;;5147107;27;43683;-80
2023/07/13 04:21:36;;;;;;;;;;;30.50;57.50;;;;;;5146352;27;42952;-80
2023/07/13 04:24:02;;;;;;;;;;;30.50;57.50;;;;;;5146423;27;43519;-80
2023/07/13 04:26:28;;;;;;;;;;;30.50;57.40;;;;;;5135495;27;43364;-82
2023/07/13 04:28:54;;;;;;;;;;;30.50;57.50;;;;;;5140768;27;42958;-80
2023/07/13 04:31:19;;;;;;;;;;;30.50;57.50;;;;;;5127354;27;42869;-81
2023/07/13 04:33:45;;;;;;;;;;;30.50;57.40;;;;;;5146921;27;43602;-80
2023/07/13 04:36:11;;;;;;;;;;;30.50;57.50;;;;;;5147284;27;42849;-81
2023/07/13 04:38:36;;;;;;;;;;;30.50;57.50;;;;;;5146299;27;42924;-80
2023/07/13 04:41:04;;;;;;;;;;;30.50;57.50;;;;;;5147196;27;42970;-81
2023/07/13 04:43:30;;;;;;;;;;;30.50;57.00;;;;;;5127993;27;43929;-80
2023/07/13 04:45:56;;;;;;;;;;;30.50;57.40;;;;;;5139641;27;43037;-80
2023/07/13 04:48:22;;;;;;;;;;;30.50;57.40;;;;;;5131569;27;44516;-78
2023/07/13 04:50:47;;;;;;;;;;;30.40;56.90;;;;;;5126982;27;43337;-80
2023/07/13 04:53:13;;;;;;;;;;;30.50;57.40;;;;;;5133829;27;42990;-80
2023/07/13 04:55:39;;;;;;;;;;;30.50;57.00;;;;;;5134360;27;42982;-79
2023/07/13 04:58:04;;;;;;;;;;;30.40;57.40;;;;;;5128711;27;43019;-80
2023/07/13 05:00:30;;;;;;;;;;;30.40;56.90;;;;;;5126163;27;42908;-80
2023/07/13 05:02:57;;;;;;;;;;;30.50;57.40;;;;;;5139743;27;43438;-80
2023/07/13 05:05:23;;;;;;;;;;;30.50;57.40;;;;;;5136170;27;42954;-80
2023/07/13 05:07:48;;;;;;;;;;;30.50;57.40;;;;;;5131278;27;43289;-79
2023/07/13 05:10:14;;;;;;;;;;;30.50;57.40;;;;;;5125933;27;42921;-79
2023/07/13 05:12:40;;;;;;;;;;;30.40;56.90;;;;;;5145991;27;43341;-79
2023/07/13 05:15:05;;;;;;;;;;;30.40;57.40;;;;;;5143085;27;42901;-80
2023/07/13 05:17:31;;;;;;;;;;;30.50;57.40;;;;;;5144345;27;43652;-79
2023/07/13 05:19:56;;;;;;;;;;;30.50;57.40;;;;;;5145156;27;42961;-81
2023/07/13 05:22:22;;;;;;;;;;;30.40;56.90;;;;;;5128288;27;43514;-81
2023/07/13 05:24:47;;;;;;;;;;;30.50;56.90;;;;;;5137664;27;42915;-80
2023/07/13 05:27:13;;;;;;;;;;;30.40;56.90;;;;;;5130414;27;42964;-82
2023/07/13 05:29:39;;;;;;;;;;;30.50;57.90;;;;;;5144334;27;42835;-81
2023/07/13 05:32:04;;;;;;;;;;;30.50;57.40;;;;;;5141477;27;43730;-88
2023/07/13 05:34:30;;;;;;;;;;;30.40;56.90;;;;;;5127691;27;43107;-87
2023/07/13 05:36:55;;;;;;;;;;;30.40;56.90;;;;;;5142089;27;43737;-84
2023/07/13 05:39:21;;;;;;;;;;;30.50;57.00;;;;;;5132212;27;42901;-85
2023/07/13 05:41:46;;;;;;;;;;;30.40;56.90;;;;;;5142941;27;42981;-84
2023/07/13 05:44:12;;;;;;;;;;;30.40;57.40;;;;;;5144639;27;42919;-80
2023/07/13 05:46:37;;;;;;;;;;;30.40;56.90;;;;;;5139351;27;42901;-80
2023/07/13 05:49:03;;;;;;;;;;;30.40;56.90;;;;;;5139921;27;42970;-81
2023/07/13 05:51:29;;;;;;;;;;;30.40;57.40;;;;;;5129902;27;43786;-80
2023/07/13 05:53:54;;;;;;;;;;;30.40;57.40;;;;;;5139598;27;42976;-81
2023/07/13 05:56:20;;;;;;;;;;;30.40;56.90;;;;;;5142161;27;43658;-81
2023/07/13 05:58:45;;;;;;;;;;;30.40;57.50;;;;;;5135735;27;42979;-81
2023/07/13 06:01:12;;;;;;;;;;;30.40;57.40;;;;;;5144329;27;43693;-81
2023/07/13 06:03:38;;;;;;;;;;;30.40;56.90;;;;;;5146897;27;42981;-81
2023/07/13 06:06:04;;;;;;;;;;;30.40;56.90;;;;;;5145555;27;43034;-80
2023/07/13 06:08:29;;;;;;;;;;;30.40;57.40;;;;;;5144408;27;43860;-82
2023/07/13 06:11:01;;;;;;;;;;;30.40;57.40;;;;;;5128697;27;43038;-84
2023/07/13 06:13:26;;;;;;;;;;;30.40;56.90;;;;;;5138526;27;43049;-82
2023/07/13 06:15:52;;;;;;;;;;;30.40;56.90;;;;;;5144450;27;42920;-81
2023/07/13 06:18:17;;;;;;;;;;;30.40;57.40;;;;;;5134151;27;42968;-81
2023/07/13 06:20:43;;;;;;;;;;;30.40;56.90;;;;;;5127629;27;43023;-81
2023/07/13 06:23:08;;;;;;;;;;;30.40;56.90;;;;;;5140088;27;42920;-81
2023/07/13 06:25:34;;;;;;;;;;;30.40;56.90;;;;;;5075544;27;1870597;-80
2023/07/13 06:28:00;;;;;;;;;;;30.40;57.50;;;;;;5129358;27;42913;-81
2023/07/13 06:30:26;;;;;;;;;;;30.40;57.40;;;;;;5133045;27;42916;-82
2023/07/13 06:32:51;;;;;;;;;;;30.30;56.90;;;;;;5148951;27;43099;-80
2023/07/13 06:35:17;;;;;;;;;;;30.40;57.70;;;;;;5148866;27;43616;-81
2023/07/13 06:37:42;;;;;;;;;;;30.30;56.90;;;;;;5148139;27;42910;-81
2023/07/13 06:40:08;;;;;;;;;;;30.40;57.00;;;;;;5148552;27;43470;-82
2023/07/13 06:42:33;;;;;;;;;;;30.40;57.00;;;;;;5148341;27;42842;-85
2023/07/13 06:44:59;;;;;;;;;;;30.30;56.90;;;;;;5148994;27;43091;-83
2023/07/13 06:47:24;;;;;;;;;;;30.40;57.00;;;;;;5149517;27;42955;-84
2023/07/13 06:49:50;;;;;;;;;;;30.40;57.00;;;;;;5148733;27;42905;-81
2023/07/13 06:52:15;;;;;;;;;;;30.30;56.90;;;;;;5145451;27;43009;-85
2023/07/13 06:54:41;;;;;;;;;;;30.40;57.00;;;;;;5128289;27;43681;-81
2023/07/13 06:57:07;;;;;;;;;;;30.40;57.50;;;;;;5128029;27;43031;-82
2023/07/13 06:59:32;;;;;;;;;;;30.40;57.00;;;;;;5138149;27;43780;-85
2023/07/13 07:01:58;;;;;;;;;;;30.30;56.90;;;;;;5126827;27;43878;-85
2023/07/13 07:04:23;;;;;;;;;;;30.40;57.00;;;;;;5128262;27;42944;-82
2023/07/13 07:06:49;;;;;;;;;;;30.30;56.90;;;;;;5131184;27;43094;-82
2023/07/13 07:09:16;;;;;;;;;;;30.40;56.90;;;;;;5138677;27;43585;-82
2023/07/13 07:11:42;;;;;;;;;;;30.40;57.00;;;;;;5143739;27;43507;-79
2023/07/13 07:14:08;;;;;;;;;;;30.40;56.90;;;;;;5129242;27;45568;-82
2023/07/13 07:16:33;;;;;;;;;;;30.40;56.90;;;;;;5128117;27;43066;-81
2023/07/13 07:18:59;;;;;;;;;;;30.40;56.90;;;;;;5126118;27;42912;-81
2023/07/13 07:21:25;;;;;;;;;;;30.40;56.90;;;;;;5129786;27;43107;-82
2023/07/13 07:23:51;;;;;;;;;;;30.40;56.90;;;;;;5147857;27;43004;-83
2023/07/13 07:26:17;;;;;;;;;;;30.40;56.90;;;;;;5118302;27;42813;-82
2023/07/13 07:28:42;;;;;;;;;;;30.40;56.90;;;;;;5127916;27;42970;-82
2023/07/13 07:31:08;;;;;;;;;;;30.30;56.90;;;;;;5109127;27;42909;-84
2023/07/13 07:33:34;;;;;;;;;;;30.40;56.90;;;;;;5122027;27;45250;-81
2023/07/13 07:36:00;;;;;;;;;;;30.40;56.90;;;;;;5139474;27;42834;-82
2023/07/13 07:38:26;;;;;;;;;;;30.40;57.00;;;;;;5147264;27;43295;-85
2023/07/13 07:40:52;;;;;;;;;;;30.40;57.00;;;;;;5118284;27;43022;-82
2023/07/13 07:43:17;;;;;;;;;;;30.40;57.00;;;;;;5108747;27;44213;-85
2023/07/13 07:45:44;;;;;;;;;;;30.40;57.00;;;;;;5138552;27;42882;-81
2023/07/13 07:48:09;;;;;;;;;;;30.30;56.90;;;;;;5124897;27;44821;-82
2023/07/13 07:50:35;;;;;;;;;;;30.40;56.90;;;;;;5127862;27;42953;-82
2023/07/13 07:53:02;;;;;;;;;;;30.30;56.90;;;;;;5108360;27;44343;-82
2023/07/13 07:55:27;;;;;;;;;;;30.30;56.90;;;;;;5138822;27;43067;-82
2023/07/13 07:57:53;;;;;;;;;;;30.40;56.90;;;;;;5147766;27;43026;-84
2023/07/13 08:00:18;;;;;;;;;;;30.40;56.90;;;;;;5148318;27;43141;-81
2023/07/13 08:02:44;;;;;;;;;;;30.40;56.90;;;;;;5130058;27;43677;-81
2023/07/13 08:05:10;;;;;;;;;;;30.30;56.90;;;;;;5137804;27;43075;-80
2023/07/13 08:07:39;;;;;;;;;;;30.30;56.90;;;;;;5111270;27;44421;-83
2023/07/13 08:10:05;;;;;;;;;;;30.30;56.90;;;;;;5120467;27;42982;-83
2023/07/13 08:12:33;;;;;;;;;;;30.30;56.90;;;;;;5130460;27;43694;-81
2023/07/13 08:15:00;;;;;;;;;;;30.30;56.90;;;;;;5128325;27;42962;-81
2023/07/13 08:17:26;;;;;;;;;;;30.30;56.90;;;;;;5125825;27;43082;-82
2023/07/13 08:19:51;;;;;;;;;;;30.30;56.90;;;;;;5146806;27;42845;-84
2023/07/13 08:22:17;;;;;;;;;;;30.40;56.90;;;;;;5146306;27;42929;-84
2023/07/13 08:24:43;;;;;;;;;;;30.40;56.90;;;;;;5146893;27;43049;-83
2023/07/13 08:27:09;;;;;;;;;;;30.30;56.90;;;;;;5146783;27;43567;-81
2023/07/13 08:29:34;;;;;;;;;;;30.30;56.90;;;;;;5147729;27;43012;-81
2023/07/13 08:32:00;;;;;;;;;;;30.40;56.90;;;;;;5146781;27;43638;-82
2023/07/13 08:34:26;;;;;;;;;;;;;;;;;;5147294;27;43009;-84
2023/07/13 08:36:51;;;;;;;;;;;30.30;56.80;;;;;;5146993;27;42896;-84
2023/07/13 08:39:17;;;;;;;;;;;30.30;56.80;;;;;;5128234;27;43030;-83
2023/07/13 08:41:46;;;;;;;;;;;30.40;56.90;;;;;;5127752;27;44400;-82
2023/07/13 08:44:18;;;;;;;;;;;30.40;56.90;;;;;;5135550;27;42818;-82
2023/07/13 08:46:45;;;;;;;;;;;30.30;56.80;;;;;;5145847;27;42918;-81
2023/07/13 08:49:14;;;;;;;;;;;30.30;56.80;;;;;;5146662;27;43029;-82
2023/07/13 08:51:53;;;;;;;;;;;30.30;56.80;;;;;;5126839;27;42939;-83
2023/07/13 08:54:30;;;;;;;;;;;30.40;56.80;;;;;;5126904;27;42951;-82
2023/07/13 08:56:57;;;;;;;;;;;30.40;56.80;;;;;;5136223;27;43015;-82
2023/07/13 08:59:28;;;;;;;;;;;30.40;56.80;;;;;;5146779;27;42905;-83
2023/07/13 09:02:00;;;;;;;;;;;30.30;56.80;;;;;;5146497;27;42869;-83
2023/07/13 09:04:28;;;;;;;;;;;30.30;56.80;;;;;;5146320;27;42918;-81
2023/07/13 09:06:53;;;;;;;;;;;30.30;56.80;;;;;;5146843;27;43456;-83
2023/07/13 09:09:37;;;;;;;;;;;30.30;56.80;;;;;;5147346;27;42898;-83
2023/07/13 09:12:08;;;;;;;;;;;30.30;56.80;;;;;;5146465;27;43088;-82
2023/07/13 09:14:37;;;;;;;;;;;30.30;56.80;;;;;;5119642;27;42932;-83
2023/07/13 09:17:04;;;;;;;;;;;30.40;56.90;;;;;;5140125;27;43799;-82
2023/07/13 09:19:32;;;;;;;;;;;30.30;56.80;;;;;;5146742;27;42825;-84
2023/07/13 09:21:59;;;;;;;;;;;30.30;56.80;;;;;;5145898;27;43877;-82
2023/07/13 09:24:30;;;;;;;;;;;30.30;56.80;;;;;;5128062;27;42976;-85
2023/07/13 09:26:57;;;;;;;;;;;30.30;56.80;;;;;;5129274;27;43473;-82
2023/07/13 09:29:32;;;;;;;;;;;30.30;56.80;;;;;;5136485;27;43005;-83
2023/07/13 09:32:01;;;;;;;;;;;30.30;56.80;;;;;;5145898;27;43167;-82
2023/07/13 09:34:26;;;;;;;;;;;30.30;56.80;;;;;;5145656;27;42916;-82
2023/07/13 09:36:52;;;;;;;;;;;30.30;56.80;;;;;;5144927;27;43777;-81
2023/07/13 09:39:20;;;;;;;;;;;30.30;56.80;;;;;;5145419;27;43347;-82
2023/07/13 09:42:04;;;;;;;;;;;30.30;56.80;;;;;;5144815;27;43026;-85
2023/07/13 09:44:33;;;;;;;;;;;30.40;56.80;;;;;;5145502;27;43058;-85
2023/07/13 09:46:58;;;;;;;;;;;30.30;56.70;;;;;;5127446;27;43704;-82
2023/07/13 09:49:35;;;;;;;;;;;30.30;56.80;;;;;;5145799;27;42933;-82
2023/07/13 09:52:05;;;;;;;;;;;30.30;56.70;;;;;;5136787;27;43531;-83
2023/07/13 09:54:32;;;;;;;;;;;30.30;56.70;;;;;;5129483;27;43885;-84
2023/07/13 09:56:58;;;;;;;;;;;30.30;56.70;;;;;;5135504;27;42927;-81
2023/07/13 09:59:28;;;;;;;;;;;30.30;56.70;;;;;;5128952;27;43299;-82
2023/07/13 10:01:54;;;;;;;;;;;30.30;56.70;;;;;;5135166;27;44058;-82
2023/07/13 10:04:22;;;;;;;;;;;30.30;56.70;;;;;;5125980;27;42966;-82
2023/07/13 10:06:47;;;;;;;;;;;30.30;56.70;;;;;;5128702;27;43812;-82
2023/07/13 10:09:16;;;;;;;;;;;30.40;56.80;;;;;;5146529;27;42869;-81
2023/07/13 10:11:43;;;;;;;;;;;30.30;56.70;;;;;;5145902;27;43018;-83
2023/07/13 10:14:17;;;;;;;;;;;30.30;56.70;;;;;;5143218;27;42970;-83
2023/07/13 10:16:44;;;;;;;;;;;30.30;56.70;;;;;;5136098;27;43992;-84
2023/07/13 10:19:12;;;;;;;;;;;30.30;56.70;;;;;;5145069;27;43065;-82
2023/07/13 10:21:42;;;;;;;;;;;30.30;56.70;;;;;;5145525;27;43575;-82
2023/07/13 10:24:15;;;;;;;;;;;30.30;56.70;;;;;;5145039;27;43015;-84
2023/07/13 10:26:45;;;;;;;;;;;30.40;56.80;;;;;;5144914;27;43612;-83
2023/07/13 10:29:14;;;;;;;;;;;30.40;56.80;;;;;;5145644;27;43563;-83
2023/07/13 10:31:41;;;;;;;;;;;30.30;56.70;;;;;;5143447;27;43775;-83
2023/07/13 10:34:11;;;;;;;;;;;30.30;56.70;;;;;;5134003;27;43059;-81
2023/07/13 10:36:44;;;;;;;;;;;30.40;56.80;;;;;;5144157;27;43554;-84
2023/07/13 10:39:10;;;;;;;;;;;;;;;;;;5145750;27;42959;-84
2023/07/13 10:41:38;;;;;;;;;;;30.30;56.80;;;;;;5145212;27;43387;-83
2023/07/13 10:44:04;;;;;;;;;;;30.30;56.80;;;;;;5144866;27;43025;-84
2023/07/13 10:46:30;;;;;;;;;;;30.30;56.80;;;;;;5146425;27;43879;-83
2023/07/13 10:49:01;;;;;;;;;;;30.30;56.80;;;;;;5146059;27;43053;-82
2023/07/13 10:51:27;;;;;;;;;;;30.30;56.80;;;;;;5137871;27;42924;-81
2023/07/13 10:54:11;;;;;;;;;;;30.30;56.80;;;;;;5132513;27;43100;-84
2023/07/13 10:56:39;;;;;;;;;;;30.30;56.80;;;;;;5128739;27;42985;-81
2023/07/13 10:59:14;;;;;;;;;;;30.30;56.70;;;;;;5141931;27;42951;-82
2023/07/13 11:01:47;;;;;;;;;;;30.30;56.70;;;;;;5129774;27;42944;-82
2023/07/13 11:04:20;;;;;;;;;;;30.30;56.70;;;;;;5148285;27;42857;-81
2023/07/13 11:06:49;;;;;;;;;;;30.40;57.30;;;;;;5148775;27;42817;-81
2023/07/13 11:09:18;;;;;;;;;;;30.40;56.80;;;;;;5149216;27;42951;-81
2023/07/13 11:11:43;;;;;;;;;;;30.30;57.10;;;;;;5149284;27;43650;-80
2023/07/13 11:14:21;;;;;;;;;;;30.30;56.70;;;;;;5148514;27;43005;-83
2023/07/13 11:16:47;;;;;;;;;;;30.30;56.70;;;;;;5147147;27;42906;-81
2023/07/13 11:19:15;;;;;;;;;;;30.30;56.70;;;;;;5148043;27;42883;-81
2023/07/13 11:21:59;;;;;;;;;;;30.30;57.10;;;;;;5148119;27;43072;-82
2023/07/13 11:24:28;;;;;;;;;;;30.30;57.20;;;;;;5129606;27;42954;-81
2023/07/13 11:26:53;;;;;;;;;;;30.30;56.70;;;;;;5140039;27;43484;-82
2023/07/13 11:29:31;;;;;;;;;;;30.30;56.70;;;;;;5148674;27;42924;-83
2023/07/13 11:31:57;;;;;;;;;;;30.30;56.70;;;;;;5148225;27;42873;-81
2023/07/13 11:34:31;;;;;;;;;;;30.30;57.20;;;;;;5147321;27;44117;-84
2023/07/13 11:36:58;;;;;;;;;;;30.30;56.70;;;;;;5147571;27;44278;-82
2023/07/13 11:39:35;;;;;;;;;;;30.30;56.70;;;;;;5148006;27;43253;-80
2023/07/13 11:42:02;;;;;;;;;;;30.30;57.20;;;;;;5134081;27;43510;-81
2023/07/13 11:44:29;;;;;;;;;;;30.30;57.10;;;;;;5147772;27;42894;-81
2023/07/13 11:47:04;;;;;;;;;;;30.30;56.70;;;;;;5147542;27;43515;-81
2023/07/13 11:49:30;;;;;;;;;;;30.30;56.60;;;;;;5147810;27;42860;-80
2023/07/13 11:51:56;;;;;;;;;;;30.30;56.60;;;;;;5134085;27;42984;-81
2023/07/13 11:54:29;;;;;;;;;;;30.30;56.60;;;;;;5147396;27;42975;-81
2023/07/13 11:57:01;;;;;;;;;;;30.30;57.00;;;;;;5147140;27;43608;-81
2023/07/13 11:59:26;;;;;;;;;;;30.30;57.10;;;;;;5146354;27;42848;-81
2023/07/13 12:01:53;;;;;;;;;;;30.30;57.10;;;;;;5147999;27;43433;-82
2023/07/13 12:04:27;;;;;;;;;;;30.30;57.10;;;;;;5147085;27;43048;-81
2023/07/13 12:07:04;;;;;;;;;;;30.30;56.60;;;;;;5128243;27;43658;-82
2023/07/13 12:09:30;;;;;;;;;;;30.30;57.00;;;;;;5146482;27;42999;-81
2023/07/13 12:11:56;;;;;;;;;;;30.30;56.60;;;;;;5147019;27;42933;-81
2023/07/13 12:14:24;;;;;;;;;;;30.30;56.60;;;;;;5147251;27;42987;-82
2023/07/13 12:16:50;;;;;;;;;;;30.40;56.60;;;;;;5146067;27;44543;-81
2023/07/13 12:19:21;;;;;;;;;;;30.30;56.50;;;;;;5127071;27;43008;-81
2023/07/13 12:21:46;;;;;;;;;;;30.30;56.50;;;;;;5121701;27;44556;-81
2023/07/13 12:24:22;;;;;;;;;;;30.30;56.50;;;;;;5140876;27;43004;-81
2023/07/13 12:26:52;;;;;;;;;;;30.30;56.50;;;;;;5127223;27;43422;-82
2023/07/13 12:29:18;;;;;;;;;;;30.30;56.50;;;;;;5136803;27;43004;-82
2023/07/13 12:31:44;;;;;;;;;;;;;;;;;;5146503;27;43529;-81
2023/07/13 12:34:17;;;;;;;;;;;30.30;56.50;;;;;;5147254;27;43039;-81
2023/07/13 12:37:11;;;;;;;;;;;30.30;56.50;;;;;;5146493;27;42948;-82
2023/07/13 12:39:44;;;;;;;;;;;30.30;57.50;;;;;;5123190;27;43099;-81
2023/07/13 12:42:14;;;;;;;;;;;30.30;56.50;;;;;;5147011;27;42950;-81
2023/07/13 12:44:41;;;;;;;;;;;30.30;57.00;;;;;;5127951;27;42929;-80
2023/07/13 12:47:11;;;;;;;;;;;27.90;54.90;;;;;;5146803;27;42945;-81
2023/07/13 12:49:40;;;;;;;;;;;30.30;56.50;;;;;;5145793;27;43012;-81
2023/07/13 12:52:14;;;;;;;;;;;30.30;56.50;;;;;;5146557;27;43562;-81
2023/07/13 12:54:39;;;;;;;;;;;30.30;56.90;;;;;;5145850;27;43685;-81
2023/07/13 12:57:09;;;;;;;;;;;30.30;56.50;;;;;;5146733;27;43058;-81
2023/07/13 12:59:36;;;;;;;;;;;30.30;57.00;;;;;;5141975;27;43014;-80
2023/07/13 13:02:02;;;;;;;;;;;30.30;57.00;;;;;;5137741;27;43380;-81
2023/07/13 13:04:28;;;;;;;;;;;30.30;56.50;;;;;;5146935;27;43000;-82
2023/07/13 13:07:03;;;;;;;;;;;30.30;56.50;;;;;;5146984;27;43538;-81
2023/07/13 13:09:29;;;;;;;;;;;30.30;56.50;;;;;;5146559;27;43119;-82
2023/07/13 13:11:55;;;;;;;;;;;30.30;56.50;;;;;;5133863;27;43039;-81
2023/07/13 13:14:20;;;;;;;;;;;30.30;57.00;;;;;;5127078;27;43210;-80
2023/07/13 13:16:48;;;;;;;;;;;30.30;57.00;;;;;;5145707;27;43921;-81
2023/07/13 13:19:14;;;;;;;;;;;30.30;56.50;;;;;;5147027;27;42962;-81
2023/07/13 13:21:40;;;;;;;;;;;30.30;56.50;;;;;;5146724;27;43450;-81
2023/07/13 13:24:12;;;;;;;;;;;30.30;56.50;;;;;;5145544;27;42889;-80
2023/07/13 13:26:38;;;;;;;;;;;30.30;56.50;;;;;;5145968;27;43389;-82
2023/07/13 13:29:14;;;;;;;;;;;30.40;57.10;;;;;;5131644;27;42907;-83
2023/07/13 13:31:40;;;;;;;;;;;30.30;56.50;;;;;;5125624;27;44545;-83
2023/07/13 13:34:07;;;;;;;;;;;30.30;56.50;;;;;;5141760;27;43004;-81
2023/07/13 13:36:33;;;;;;;;;;;30.30;56.50;;;;;;5117667;27;44422;-83
2023/07/13 13:39:01;;;;;;;;;;;30.30;57.00;;;;;;5126542;27;42850;-82
2023/07/13 13:41:26;;;;;;;;;;;30.30;56.50;;;;;;5126101;27;42856;-81
2023/07/13 13:43:52;;;;;;;;;;;30.30;57.00;;;;;;5126090;27;42960;-82
2023/07/13 13:46:19;;;;;;;;;;;30.30;57.00;;;;;;5126248;27;43350;-81
2023/07/13 13:48:45;;;;;;;;;;;30.30;56.50;;;;;;5123769;27;43133;-81
2023/07/13 13:51:20;;;;;;;;;;;30.30;56.90;;;;;;5146378;27;43008;-83
2023/07/13 13:53:47;;;;;;;;;;;30.30;56.50;;;;;;5145611;27;43373;-81
2023/07/13 13:56:13;;;;;;;;;;;30.30;56.90;;;;;;5127123;27;44528;-82
2023/07/13 13:58:40;;;;;;;;;;;30.30;57.00;;;;;;5145514;27;43069;-81
2023/07/13 14:01:10;;;;;;;;;;;30.30;56.50;;;;;;5145684;27;43760;-80
2023/07/13 14:03:35;;;;;;;;;;;30.30;56.50;;;;;;5145848;27;42979;-81
2023/07/13 14:06:01;;;;;;;;;;;30.30;57.00;;;;;;5145348;27;43800;-81
2023/07/13 14:08:26;;;;;;;;;;;30.30;57.00;;;;;;5135250;27;42893;-81
2023/07/13 14:10:53;;;;;;;;;;;30.30;57.00;;;;;;5129155;27;43782;-81
2023/07/13 14:13:27;;;;;;;;;;;30.30;56.50;;;;;;5145541;27;42907;-82
2023/07/13 14:15:54;;;;;;;;;;;30.30;56.50;;;;;;5144247;27;43107;-82
2023/07/13 14:18:19;;;;;;;;;;;30.30;56.50;;;;;;5145598;27;43078;-81